sensor_id;sensor_type;location;lat;lon;timestamp;P1;durP1;ratioP1;P2;durP2;ratioP2
10939;SDS011;5522;42.696;23.494;2022-12-18T00:02:06;11.75;;;8.40;;
10939;SDS011;5522;42.696;23.494;2022-12-18T00:04:33;13.23;;;9.02;;
10939;SDS011;5522;42.696;23.494;2022-12-18T00:07:00;13.18;;;9.35;;
10939;SDS011;5522;42.696;23.494;2022-12-18T00:09:27;13.98;;;9.13;;
10939;SDS011;5522;42.696;23.494;2022-12-18T00:11:54;11.88;;;8.38;;
10939;SDS011;5522;42.696;23.494;2022-12-18T00:14:22;12.25;;;7.85;;
10939;SDS011;5522;42.696;23.494;2022-12-18T00:16:49;11.93;;;8.25;;
10939;SDS011;5522;42.696;23.494;2022-12-18T00:19:16;13.38;;;8.80;;
10939;SDS011;5522;42.696;23.494;2022-12-18T00:21:43;10.30;;;8.63;;
10939;SDS011;5522;42.696;23.494;2022-12-18T00:24:10;10.93;;;8.60;;
10939;SDS011;5522;42.696;23.494;2022-12-18T00:26:38;13.13;;;8.77;;
10939;SDS011;5522;42.696;23.494;2022-12-18T00:29:06;14.25;;;8.65;;
10939;SDS011;5522;42.696;23.494;2022-12-18T00:31:37;13.23;;;8.88;;
10939;SDS011;5522;42.696;23.494;2022-12-18T00:34:04;11.35;;;8.88;;
10939;SDS011;5522;42.696;23.494;2022-12-18T00:36:32;12.48;;;8.27;;
10939;SDS011;5522;42.696;23.494;2022-12-18T00:39:02;14.55;;;9.43;;
10939;SDS011;5522;42.696;23.494;2022-12-18T00:41:30;12.85;;;7.95;;
10939;SDS011;5522;42.696;23.494;2022-12-18T00:44:16;9.75;;;7.50;;
10939;SDS011;5522;42.696;23.494;2022-12-18T00:46:46;12.30;;;8.00;;
10939;SDS011;5522;42.696;23.494;2022-12-18T00:49:14;11.15;;;7.95;;
10939;SDS011;5522;42.696;23.494;2022-12-18T00:51:42;12.40;;;7.57;;
10939;SDS011;5522;42.696;23.494;2022-12-18T00:54:09;9.65;;;8.13;;
10939;SDS011;5522;42.696;23.494;2022-12-18T00:56:37;10.02;;;7.82;;
10939;SDS011;5522;42.696;23.494;2022-12-18T00:59:05;9.35;;;7.53;;
10939;SDS011;5522;42.696;23.494;2022-12-18T01:01:31;11.13;;;8.65;;
10939;SDS011;5522;42.696;23.494;2022-12-18T01:04:01;10.10;;;7.40;;
10939;SDS011;5522;42.696;23.494;2022-12-18T01:06:29;11.27;;;8.25;;
10939;SDS011;5522;42.696;23.494;2022-12-18T01:08:56;10.60;;;8.32;;
10939;SDS011;5522;42.696;23.494;2022-12-18T01:11:23;10.27;;;7.78;;
10939;SDS011;5522;42.696;23.494;2022-12-18T01:13:51;11.40;;;7.85;;
10939;SDS011;5522;42.696;23.494;2022-12-18T01:16:18;12.13;;;9.18;;
10939;SDS011;5522;42.696;23.494;2022-12-18T01:18:45;11.07;;;8.30;;
10939;SDS011;5522;42.696;23.494;2022-12-18T01:21:14;10.27;;;8.35;;
10939;SDS011;5522;42.696;23.494;2022-12-18T01:23:42;10.38;;;7.47;;
10939;SDS011;5522;42.696;23.494;2022-12-18T01:26:09;10.07;;;7.75;;
10939;SDS011;5522;42.696;23.494;2022-12-18T01:28:38;10.60;;;7.15;;
10939;SDS011;5522;42.696;23.494;2022-12-18T01:31:09;10.00;;;7.90;;
10939;SDS011;5522;42.696;23.494;2022-12-18T01:33:40;11.23;;;7.80;;
10939;SDS011;5522;42.696;23.494;2022-12-18T01:36:07;8.27;;;6.63;;
10939;SDS011;5522;42.696;23.494;2022-12-18T01:38:35;10.88;;;7.57;;
10939;SDS011;5522;42.696;23.494;2022-12-18T01:41:02;8.10;;;6.57;;
10939;SDS011;5522;42.696;23.494;2022-12-18T01:43:46;8.80;;;7.57;;
10939;SDS011;5522;42.696;23.494;2022-12-18T01:46:15;9.13;;;6.80;;
10939;SDS011;5522;42.696;23.494;2022-12-18T01:48:43;9.18;;;6.43;;
10939;SDS011;5522;42.696;23.494;2022-12-18T01:51:12;9.43;;;6.47;;
10939;SDS011;5522;42.696;23.494;2022-12-18T01:53:41;8.77;;;6.03;;
10939;SDS011;5522;42.696;23.494;2022-12-18T01:56:12;10.30;;;6.72;;
10939;SDS011;5522;42.696;23.494;2022-12-18T01:58:42;9.27;;;6.40;;
10939;SDS011;5522;42.696;23.494;2022-12-18T02:01:14;12.25;;;6.72;;
10939;SDS011;5522;42.696;23.494;2022-12-18T02:03:42;7.22;;;6.15;;
10939;SDS011;5522;42.696;23.494;2022-12-18T02:06:11;7.93;;;6.28;;
10939;SDS011;5522;42.696;23.494;2022-12-18T02:08:47;11.25;;;7.15;;
10939;SDS011;5522;42.696;23.494;2022-12-18T02:11:24;9.50;;;6.90;;
10939;SDS011;5522;42.696;23.494;2022-12-18T02:14:00;9.15;;;6.72;;
10939;SDS011;5522;42.696;23.494;2022-12-18T02:16:38;10.75;;;6.80;;
10939;SDS011;5522;42.696;23.494;2022-12-18T02:19:14;8.38;;;6.50;;
10939;SDS011;5522;42.696;23.494;2022-12-18T02:21:49;9.15;;;6.28;;
10939;SDS011;5522;42.696;23.494;2022-12-18T02:24:28;8.13;;;6.25;;
10939;SDS011;5522;42.696;23.494;2022-12-18T02:27:02;9.70;;;6.20;;
10939;SDS011;5522;42.696;23.494;2022-12-18T02:29:33;7.88;;;6.07;;
10939;SDS011;5522;42.696;23.494;2022-12-18T02:32:04;7.30;;;6.05;;
10939;SDS011;5522;42.696;23.494;2022-12-18T02:34:36;7.20;;;5.78;;
10939;SDS011;5522;42.696;23.494;2022-12-18T02:37:07;7.43;;;5.75;;
10939;SDS011;5522;42.696;23.494;2022-12-18T02:39:39;7.75;;;5.65;;
10939;SDS011;5522;42.696;23.494;2022-12-18T02:42:09;7.40;;;6.03;;
10939;SDS011;5522;42.696;23.494;2022-12-18T02:44:41;7.88;;;5.90;;
10939;SDS011;5522;42.696;23.494;2022-12-18T02:47:09;9.48;;;5.85;;
10939;SDS011;5522;42.696;23.494;2022-12-18T02:49:40;7.38;;;5.38;;
10939;SDS011;5522;42.696;23.494;2022-12-18T02:52:17;6.70;;;5.53;;
10939;SDS011;5522;42.696;23.494;2022-12-18T02:54:59;8.98;;;5.70;;
10939;SDS011;5522;42.696;23.494;2022-12-18T02:57:36;8.60;;;5.30;;
10939;SDS011;5522;42.696;23.494;2022-12-18T03:00:10;5.10;;;4.57;;
10939;SDS011;5522;42.696;23.494;2022-12-18T03:02:41;7.93;;;6.05;;
10939;SDS011;5522;42.696;23.494;2022-12-18T03:05:13;6.05;;;5.28;;
10939;SDS011;5522;42.696;23.494;2022-12-18T03:07:45;7.43;;;5.20;;
10939;SDS011;5522;42.696;23.494;2022-12-18T03:10:18;8.20;;;5.88;;
10939;SDS011;5522;42.696;23.494;2022-12-18T03:12:52;8.82;;;5.75;;
10939;SDS011;5522;42.696;23.494;2022-12-18T03:15:22;9.15;;;4.95;;
10939;SDS011;5522;42.696;23.494;2022-12-18T03:17:55;6.07;;;4.50;;
10939;SDS011;5522;42.696;23.494;2022-12-18T03:20:26;6.47;;;4.82;;
10939;SDS011;5522;42.696;23.494;2022-12-18T03:22:59;6.53;;;5.10;;
10939;SDS011;5522;42.696;23.494;2022-12-18T03:25:33;7.35;;;4.78;;
10939;SDS011;5522;42.696;23.494;2022-12-18T03:28:07;7.97;;;4.53;;
10939;SDS011;5522;42.696;23.494;2022-12-18T03:30:37;6.55;;;4.68;;
10939;SDS011;5522;42.696;23.494;2022-12-18T03:33:08;6.43;;;5.55;;
10939;SDS011;5522;42.696;23.494;2022-12-18T03:35:39;6.47;;;5.43;;
10939;SDS011;5522;42.696;23.494;2022-12-18T03:38:08;6.10;;;5.53;;
10939;SDS011;5522;42.696;23.494;2022-12-18T03:40:39;6.65;;;5.05;;
10939;SDS011;5522;42.696;23.494;2022-12-18T03:43:16;6.85;;;4.45;;
10939;SDS011;5522;42.696;23.494;2022-12-18T03:45:48;6.80;;;4.85;;
10939;SDS011;5522;42.696;23.494;2022-12-18T03:48:19;6.78;;;4.95;;
10939;SDS011;5522;42.696;23.494;2022-12-18T03:50:55;8.13;;;5.35;;
10939;SDS011;5522;42.696;23.494;2022-12-18T03:53:27;8.07;;;5.72;;
10939;SDS011;5522;42.696;23.494;2022-12-18T03:55:59;5.72;;;5.10;;
10939;SDS011;5522;42.696;23.494;2022-12-18T03:58:30;7.95;;;5.53;;
10939;SDS011;5522;42.696;23.494;2022-12-18T04:01:01;7.63;;;5.45;;
10939;SDS011;5522;42.696;23.494;2022-12-18T04:03:30;8.07;;;5.63;;
10939;SDS011;5522;42.696;23.494;2022-12-18T04:05:58;5.20;;;4.70;;
10939;SDS011;5522;42.696;23.494;2022-12-18T04:08:27;7.55;;;5.75;;
10939;SDS011;5522;42.696;23.494;2022-12-18T04:10:55;6.75;;;5.25;;
10939;SDS011;5522;42.696;23.494;2022-12-18T04:13:22;7.05;;;5.82;;
10939;SDS011;5522;42.696;23.494;2022-12-18T04:15:51;7.90;;;5.57;;
10939;SDS011;5522;42.696;23.494;2022-12-18T04:18:18;7.20;;;5.68;;
10939;SDS011;5522;42.696;23.494;2022-12-18T04:20:45;7.63;;;5.45;;
10939;SDS011;5522;42.696;23.494;2022-12-18T04:23:12;7.95;;;6.00;;
10939;SDS011;5522;42.696;23.494;2022-12-18T04:25:40;8.05;;;5.40;;
10939;SDS011;5522;42.696;23.494;2022-12-18T04:28:06;11.75;;;6.32;;
10939;SDS011;5522;42.696;23.494;2022-12-18T04:30:34;9.20;;;6.47;;
10939;SDS011;5522;42.696;23.494;2022-12-18T04:33:02;6.63;;;5.50;;
10939;SDS011;5522;42.696;23.494;2022-12-18T04:35:29;8.60;;;6.05;;
10939;SDS011;5522;42.696;23.494;2022-12-18T04:37:56;8.45;;;6.13;;
10939;SDS011;5522;42.696;23.494;2022-12-18T04:40:23;8.15;;;5.72;;
10939;SDS011;5522;42.696;23.494;2022-12-18T04:42:50;9.85;;;7.05;;
10939;SDS011;5522;42.696;23.494;2022-12-18T04:45:16;10.30;;;6.70;;
10939;SDS011;5522;42.696;23.494;2022-12-18T04:47:43;9.82;;;6.95;;
10939;SDS011;5522;42.696;23.494;2022-12-18T04:50:12;11.05;;;7.53;;
10939;SDS011;5522;42.696;23.494;2022-12-18T04:52:39;10.38;;;6.20;;
10939;SDS011;5522;42.696;23.494;2022-12-18T04:55:06;8.65;;;6.82;;
10939;SDS011;5522;42.696;23.494;2022-12-18T04:57:33;13.20;;;7.25;;
10939;SDS011;5522;42.696;23.494;2022-12-18T05:00:00;12.13;;;7.47;;
10939;SDS011;5522;42.696;23.494;2022-12-18T05:02:27;11.07;;;7.82;;
10939;SDS011;5522;42.696;23.494;2022-12-18T05:04:54;13.13;;;8.50;;
10939;SDS011;5522;42.696;23.494;2022-12-18T05:07:22;10.65;;;7.97;;
10939;SDS011;5522;42.696;23.494;2022-12-18T05:09:49;13.02;;;8.25;;
10939;SDS011;5522;42.696;23.494;2022-12-18T05:12:16;12.10;;;7.55;;
10939;SDS011;5522;42.696;23.494;2022-12-18T05:14:43;12.07;;;8.57;;
10939;SDS011;5522;42.696;23.494;2022-12-18T05:17:09;12.55;;;8.13;;
10939;SDS011;5522;42.696;23.494;2022-12-18T05:19:36;14.60;;;8.93;;
10939;SDS011;5522;42.696;23.494;2022-12-18T05:22:03;10.88;;;8.13;;
10939;SDS011;5522;42.696;23.494;2022-12-18T05:24:32;14.35;;;8.75;;
10939;SDS011;5522;42.696;23.494;2022-12-18T05:26:58;12.75;;;9.00;;
10939;SDS011;5522;42.696;23.494;2022-12-18T05:29:25;11.63;;;8.15;;
10939;SDS011;5522;42.696;23.494;2022-12-18T05:31:52;13.43;;;8.65;;
10939;SDS011;5522;42.696;23.494;2022-12-18T05:34:19;13.73;;;8.63;;
10939;SDS011;5522;42.696;23.494;2022-12-18T05:36:46;12.07;;;8.73;;
10939;SDS011;5522;42.696;23.494;2022-12-18T05:39:13;11.95;;;8.43;;
10939;SDS011;5522;42.696;23.494;2022-12-18T05:41:41;11.35;;;7.60;;
10939;SDS011;5522;42.696;23.494;2022-12-18T05:44:08;13.55;;;8.50;;
10939;SDS011;5522;42.696;23.494;2022-12-18T05:46:35;12.60;;;8.45;;
10939;SDS011;5522;42.696;23.494;2022-12-18T05:49:02;13.95;;;9.20;;
10939;SDS011;5522;42.696;23.494;2022-12-18T05:51:29;13.95;;;9.00;;
10939;SDS011;5522;42.696;23.494;2022-12-18T05:53:56;12.02;;;8.57;;
10939;SDS011;5522;42.696;23.494;2022-12-18T05:56:23;20.38;;;9.43;;
10939;SDS011;5522;42.696;23.494;2022-12-18T05:58:52;15.02;;;10.15;;
10939;SDS011;5522;42.696;23.494;2022-12-18T06:01:21;13.77;;;9.05;;
10939;SDS011;5522;42.696;23.494;2022-12-18T06:03:50;13.98;;;8.93;;
10939;SDS011;5522;42.696;23.494;2022-12-18T06:06:18;12.68;;;8.98;;
10939;SDS011;5522;42.696;23.494;2022-12-18T06:08:46;13.05;;;8.98;;
10939;SDS011;5522;42.696;23.494;2022-12-18T06:11:15;16.95;;;9.82;;
10939;SDS011;5522;42.696;23.494;2022-12-18T06:13:44;14.45;;;8.82;;
10939;SDS011;5522;42.696;23.494;2022-12-18T06:16:12;15.20;;;9.73;;
10939;SDS011;5522;42.696;23.494;2022-12-18T06:18:39;17.13;;;10.50;;
10939;SDS011;5522;42.696;23.494;2022-12-18T06:21:06;16.15;;;10.38;;
10939;SDS011;5522;42.696;23.494;2022-12-18T06:23:33;14.80;;;9.82;;
10939;SDS011;5522;42.696;23.494;2022-12-18T06:26:03;14.68;;;9.90;;
10939;SDS011;5522;42.696;23.494;2022-12-18T06:28:30;16.40;;;9.00;;
10939;SDS011;5522;42.696;23.494;2022-12-18T06:30:57;16.63;;;10.10;;
10939;SDS011;5522;42.696;23.494;2022-12-18T06:33:27;13.50;;;9.50;;
10939;SDS011;5522;42.696;23.494;2022-12-18T06:35:54;15.88;;;9.63;;
10939;SDS011;5522;42.696;23.494;2022-12-18T06:38:27;16.90;;;10.45;;
10939;SDS011;5522;42.696;23.494;2022-12-18T06:40:54;19.42;;;10.93;;
10939;SDS011;5522;42.696;23.494;2022-12-18T06:43:21;15.65;;;10.07;;
10939;SDS011;5522;42.696;23.494;2022-12-18T06:45:48;15.35;;;9.52;;
10939;SDS011;5522;42.696;23.494;2022-12-18T06:48:17;16.83;;;9.38;;
10939;SDS011;5522;42.696;23.494;2022-12-18T06:50:46;14.73;;;9.70;;
10939;SDS011;5522;42.696;23.494;2022-12-18T06:53:13;14.45;;;8.90;;
10939;SDS011;5522;42.696;23.494;2022-12-18T06:55:40;16.83;;;11.18;;
10939;SDS011;5522;42.696;23.494;2022-12-18T06:58:09;15.30;;;10.50;;
10939;SDS011;5522;42.696;23.494;2022-12-18T07:00:36;16.13;;;10.23;;
10939;SDS011;5522;42.696;23.494;2022-12-18T07:03:03;16.50;;;10.35;;
10939;SDS011;5522;42.696;23.494;2022-12-18T07:05:30;14.45;;;8.80;;
10939;SDS011;5522;42.696;23.494;2022-12-18T07:07:58;14.95;;;9.63;;
10939;SDS011;5522;42.696;23.494;2022-12-18T07:10:25;14.20;;;9.55;;
10939;SDS011;5522;42.696;23.494;2022-12-18T07:12:52;14.15;;;9.48;;
10939;SDS011;5522;42.696;23.494;2022-12-18T07:15:19;14.90;;;8.93;;
10939;SDS011;5522;42.696;23.494;2022-12-18T07:17:46;15.15;;;9.80;;
10939;SDS011;5522;42.696;23.494;2022-12-18T07:20:13;14.07;;;9.13;;
10939;SDS011;5522;42.696;23.494;2022-12-18T07:22:40;17.75;;;11.07;;
10939;SDS011;5522;42.696;23.494;2022-12-18T07:25:08;17.15;;;10.18;;
10939;SDS011;5522;42.696;23.494;2022-12-18T07:27:35;18.83;;;10.57;;
10939;SDS011;5522;42.696;23.494;2022-12-18T07:30:02;17.80;;;10.77;;
10939;SDS011;5522;42.696;23.494;2022-12-18T07:32:30;15.63;;;10.07;;
10939;SDS011;5522;42.696;23.494;2022-12-18T07:34:57;16.92;;;10.15;;
10939;SDS011;5522;42.696;23.494;2022-12-18T07:37:24;16.58;;;10.05;;
10939;SDS011;5522;42.696;23.494;2022-12-18T07:39:51;18.13;;;11.10;;
10939;SDS011;5522;42.696;23.494;2022-12-18T07:42:20;16.27;;;10.45;;
10939;SDS011;5522;42.696;23.494;2022-12-18T07:45:00;16.92;;;9.95;;
10939;SDS011;5522;42.696;23.494;2022-12-18T07:47:27;15.75;;;9.25;;
10939;SDS011;5522;42.696;23.494;2022-12-18T07:49:55;12.38;;;8.82;;
10939;SDS011;5522;42.696;23.494;2022-12-18T07:52:21;16.95;;;10.52;;
10939;SDS011;5522;42.696;23.494;2022-12-18T07:54:48;16.05;;;11.15;;
10939;SDS011;5522;42.696;23.494;2022-12-18T07:57:15;16.63;;;9.23;;
10939;SDS011;5522;42.696;23.494;2022-12-18T07:59:44;14.80;;;9.77;;
10939;SDS011;5522;42.696;23.494;2022-12-18T08:02:11;17.30;;;9.32;;
10939;SDS011;5522;42.696;23.494;2022-12-18T08:04:38;15.68;;;9.38;;
10939;SDS011;5522;42.696;23.494;2022-12-18T08:07:05;15.45;;;9.95;;
10939;SDS011;5522;42.696;23.494;2022-12-18T08:09:32;15.65;;;9.88;;
10939;SDS011;5522;42.696;23.494;2022-12-18T08:11:58;16.50;;;10.07;;
10939;SDS011;5522;42.696;23.494;2022-12-18T08:14:25;15.50;;;9.23;;
10939;SDS011;5522;42.696;23.494;2022-12-18T08:16:54;17.75;;;10.80;;
10939;SDS011;5522;42.696;23.494;2022-12-18T08:19:21;15.15;;;10.55;;
10939;SDS011;5522;42.696;23.494;2022-12-18T08:21:47;17.25;;;10.23;;
10939;SDS011;5522;42.696;23.494;2022-12-18T08:24:14;18.25;;;11.20;;
10939;SDS011;5522;42.696;23.494;2022-12-18T08:26:41;17.88;;;11.48;;
10939;SDS011;5522;42.696;23.494;2022-12-18T08:29:08;17.88;;;10.90;;
10939;SDS011;5522;42.696;23.494;2022-12-18T08:31:36;16.52;;;10.52;;
10939;SDS011;5522;42.696;23.494;2022-12-18T08:34:04;19.85;;;11.70;;
10939;SDS011;5522;42.696;23.494;2022-12-18T08:36:31;18.10;;;10.55;;
10939;SDS011;5522;42.696;23.494;2022-12-18T08:38:58;18.40;;;11.65;;
10939;SDS011;5522;42.696;23.494;2022-12-18T08:41:25;20.83;;;12.55;;
10939;SDS011;5522;42.696;23.494;2022-12-18T08:43:52;19.65;;;11.80;;
10939;SDS011;5522;42.696;23.494;2022-12-18T08:46:38;20.20;;;11.50;;
10939;SDS011;5522;42.696;23.494;2022-12-18T08:49:08;19.25;;;10.90;;
10939;SDS011;5522;42.696;23.494;2022-12-18T08:51:36;15.20;;;10.20;;
10939;SDS011;5522;42.696;23.494;2022-12-18T08:54:03;19.75;;;11.10;;
10939;SDS011;5522;42.696;23.494;2022-12-18T08:56:31;18.23;;;11.18;;
10939;SDS011;5522;42.696;23.494;2022-12-18T08:58:59;16.75;;;10.52;;
10939;SDS011;5522;42.696;23.494;2022-12-18T09:01:26;18.75;;;10.85;;
10939;SDS011;5522;42.696;23.494;2022-12-18T09:03:53;17.65;;;10.85;;
10939;SDS011;5522;42.696;23.494;2022-12-18T09:06:22;18.90;;;10.95;;
10939;SDS011;5522;42.696;23.494;2022-12-18T09:08:49;17.40;;;10.95;;
10939;SDS011;5522;42.696;23.494;2022-12-18T09:11:19;18.77;;;11.02;;
10939;SDS011;5522;42.696;23.494;2022-12-18T09:13:47;17.25;;;10.13;;
10939;SDS011;5522;42.696;23.494;2022-12-18T09:16:15;17.70;;;11.38;;
10939;SDS011;5522;42.696;23.494;2022-12-18T09:18:42;18.70;;;10.95;;
10939;SDS011;5522;42.696;23.494;2022-12-18T09:21:09;17.95;;;10.93;;
10939;SDS011;5522;42.696;23.494;2022-12-18T09:23:38;19.30;;;11.25;;
10939;SDS011;5522;42.696;23.494;2022-12-18T09:26:05;15.43;;;10.02;;
10939;SDS011;5522;42.696;23.494;2022-12-18T09:28:32;15.75;;;10.55;;
10939;SDS011;5522;42.696;23.494;2022-12-18T09:31:02;17.25;;;10.82;;
10939;SDS011;5522;42.696;23.494;2022-12-18T09:33:31;18.05;;;10.48;;
10939;SDS011;5522;42.696;23.494;2022-12-18T09:36:00;19.15;;;10.27;;
10939;SDS011;5522;42.696;23.494;2022-12-18T09:38:28;20.50;;;10.88;;
10939;SDS011;5522;42.696;23.494;2022-12-18T09:40:57;14.50;;;9.40;;
10939;SDS011;5522;42.696;23.494;2022-12-18T09:43:28;15.13;;;9.02;;
10939;SDS011;5522;42.696;23.494;2022-12-18T09:46:01;17.08;;;9.82;;
10939;SDS011;5522;42.696;23.494;2022-12-18T09:48:31;13.40;;;8.88;;
10939;SDS011;5522;42.696;23.494;2022-12-18T09:51:04;16.38;;;9.65;;
10939;SDS011;5522;42.696;23.494;2022-12-18T09:53:38;18.23;;;9.98;;
10939;SDS011;5522;42.696;23.494;2022-12-18T09:56:11;14.40;;;9.25;;
10939;SDS011;5522;42.696;23.494;2022-12-18T09:58:41;15.75;;;10.63;;
10939;SDS011;5522;42.696;23.494;2022-12-18T10:01:13;15.43;;;8.85;;
10939;SDS011;5522;42.696;23.494;2022-12-18T10:03:42;16.65;;;9.18;;
10939;SDS011;5522;42.696;23.494;2022-12-18T10:06:10;17.20;;;9.63;;
10939;SDS011;5522;42.696;23.494;2022-12-18T10:08:41;18.17;;;10.32;;
10939;SDS011;5522;42.696;23.494;2022-12-18T10:11:22;13.60;;;9.82;;
10939;SDS011;5522;42.696;23.494;2022-12-18T10:14:01;16.75;;;9.98;;
10939;SDS011;5522;42.696;23.494;2022-12-18T10:16:36;18.80;;;10.00;;
10939;SDS011;5522;42.696;23.494;2022-12-18T10:19:18;16.83;;;10.38;;
10939;SDS011;5522;42.696;23.494;2022-12-18T10:21:57;14.25;;;8.57;;
10939;SDS011;5522;42.696;23.494;2022-12-18T10:24:37;13.38;;;8.82;;
10939;SDS011;5522;42.696;23.494;2022-12-18T10:27:12;18.98;;;10.13;;
10939;SDS011;5522;42.696;23.494;2022-12-18T10:29:41;18.40;;;10.57;;
10939;SDS011;5522;42.696;23.494;2022-12-18T10:32:13;18.58;;;11.30;;
10939;SDS011;5522;42.696;23.494;2022-12-18T10:34:44;14.63;;;10.23;;
10939;SDS011;5522;42.696;23.494;2022-12-18T10:37:12;16.30;;;10.23;;
10939;SDS011;5522;42.696;23.494;2022-12-18T10:39:44;14.63;;;9.00;;
10939;SDS011;5522;42.696;23.494;2022-12-18T10:42:16;17.60;;;9.48;;
10939;SDS011;5522;42.696;23.494;2022-12-18T10:44:44;15.15;;;8.77;;
10939;SDS011;5522;42.696;23.494;2022-12-18T10:47:14;17.40;;;10.90;;
10939;SDS011;5522;42.696;23.494;2022-12-18T10:49:47;14.30;;;8.68;;
10939;SDS011;5522;42.696;23.494;2022-12-18T10:52:16;15.73;;;10.00;;
10939;SDS011;5522;42.696;23.494;2022-12-18T10:54:48;18.25;;;10.52;;
10939;SDS011;5522;42.696;23.494;2022-12-18T10:57:28;15.82;;;8.98;;
10939;SDS011;5522;42.696;23.494;2022-12-18T10:59:58;16.02;;;9.13;;
10939;SDS011;5522;42.696;23.494;2022-12-18T11:02:28;15.63;;;9.50;;
10939;SDS011;5522;42.696;23.494;2022-12-18T11:05:01;15.82;;;9.23;;
10939;SDS011;5522;42.696;23.494;2022-12-18T11:07:44;14.68;;;8.85;;
10939;SDS011;5522;42.696;23.494;2022-12-18T11:10:15;14.90;;;9.13;;
10939;SDS011;5522;42.696;23.494;2022-12-18T11:12:45;14.45;;;9.90;;
10939;SDS011;5522;42.696;23.494;2022-12-18T11:15:16;17.70;;;10.02;;
10939;SDS011;5522;42.696;23.494;2022-12-18T11:17:47;14.95;;;9.20;;
10939;SDS011;5522;42.696;23.494;2022-12-18T11:20:27;16.15;;;9.65;;
10939;SDS011;5522;42.696;23.494;2022-12-18T11:22:58;20.05;;;10.60;;
10939;SDS011;5522;42.696;23.494;2022-12-18T11:25:27;17.00;;;10.52;;
10939;SDS011;5522;42.696;23.494;2022-12-18T11:27:56;18.65;;;11.18;;
10939;SDS011;5522;42.696;23.494;2022-12-18T11:30:26;18.73;;;11.38;;
10939;SDS011;5522;42.696;23.494;2022-12-18T11:32:56;14.95;;;10.23;;
10939;SDS011;5522;42.696;23.494;2022-12-18T11:35:32;19.48;;;10.50;;
10939;SDS011;5522;42.696;23.494;2022-12-18T11:38:05;17.60;;;10.63;;
10939;SDS011;5522;42.696;23.494;2022-12-18T11:40:40;19.58;;;10.20;;
10939;SDS011;5522;42.696;23.494;2022-12-18T11:43:14;16.73;;;9.82;;
10939;SDS011;5522;42.696;23.494;2022-12-18T11:45:47;20.23;;;10.73;;
10939;SDS011;5522;42.696;23.494;2022-12-18T11:48:20;20.90;;;10.57;;
10939;SDS011;5522;42.696;23.494;2022-12-18T11:50:52;19.52;;;9.68;;
10939;SDS011;5522;42.696;23.494;2022-12-18T11:53:21;16.83;;;9.65;;
10939;SDS011;5522;42.696;23.494;2022-12-18T11:55:53;17.95;;;9.65;;
10939;SDS011;5522;42.696;23.494;2022-12-18T11:58:32;17.23;;;9.40;;
10939;SDS011;5522;42.696;23.494;2022-12-18T12:01:13;14.65;;;9.10;;
10939;SDS011;5522;42.696;23.494;2022-12-18T12:06:47;16.52;;;9.88;;
10939;SDS011;5522;42.696;23.494;2022-12-18T12:09:24;13.30;;;8.20;;
10939;SDS011;5522;42.696;23.494;2022-12-18T12:12:04;16.90;;;9.73;;
10939;SDS011;5522;42.696;23.494;2022-12-18T12:14:47;17.20;;;10.32;;
10939;SDS011;5522;42.696;23.494;2022-12-18T12:17:26;15.27;;;9.75;;
10939;SDS011;5522;42.696;23.494;2022-12-18T12:20:06;16.45;;;9.77;;
10939;SDS011;5522;42.696;23.494;2022-12-18T12:22:41;15.63;;;9.50;;
10939;SDS011;5522;42.696;23.494;2022-12-18T12:25:21;16.98;;;9.68;;
10939;SDS011;5522;42.696;23.494;2022-12-18T12:28:02;15.95;;;9.35;;
10939;SDS011;5522;42.696;23.494;2022-12-18T12:30:43;16.63;;;10.02;;
10939;SDS011;5522;42.696;23.494;2022-12-18T12:33:22;14.52;;;9.25;;
10939;SDS011;5522;42.696;23.494;2022-12-18T12:36:05;18.95;;;9.85;;
10939;SDS011;5522;42.696;23.494;2022-12-18T12:38:41;15.23;;;9.13;;
10939;SDS011;5522;42.696;23.494;2022-12-18T12:41:12;15.93;;;9.57;;
10939;SDS011;5522;42.696;23.494;2022-12-18T12:43:57;17.70;;;9.82;;
10939;SDS011;5522;42.696;23.494;2022-12-18T12:46:29;20.25;;;10.60;;
10939;SDS011;5522;42.696;23.494;2022-12-18T12:49:02;18.92;;;10.85;;
10939;SDS011;5522;42.696;23.494;2022-12-18T12:51:32;15.23;;;9.27;;
10939;SDS011;5522;42.696;23.494;2022-12-18T12:54:02;20.33;;;10.55;;
10939;SDS011;5522;42.696;23.494;2022-12-18T12:56:36;20.42;;;9.93;;
10939;SDS011;5522;42.696;23.494;2022-12-18T12:59:10;18.35;;;10.52;;
10939;SDS011;5522;42.696;23.494;2022-12-18T13:01:49;16.25;;;9.80;;
10939;SDS011;5522;42.696;23.494;2022-12-18T13:04:26;15.48;;;8.77;;
10939;SDS011;5522;42.696;23.494;2022-12-18T13:07:05;16.40;;;9.07;;
10939;SDS011;5522;42.696;23.494;2022-12-18T13:12:51;17.70;;;9.85;;
10939;SDS011;5522;42.696;23.494;2022-12-18T13:15:25;18.25;;;9.32;;
10939;SDS011;5522;42.696;23.494;2022-12-18T13:20:49;18.85;;;9.73;;
10939;SDS011;5522;42.696;23.494;2022-12-18T13:23:28;15.52;;;10.35;;
10939;SDS011;5522;42.696;23.494;2022-12-18T13:25:58;17.83;;;10.27;;
10939;SDS011;5522;42.696;23.494;2022-12-18T13:28:49;16.98;;;10.23;;
10939;SDS011;5522;42.696;23.494;2022-12-18T13:34:34;17.00;;;9.65;;
10939;SDS011;5522;42.696;23.494;2022-12-18T13:46:19;19.83;;;11.30;;
10939;SDS011;5522;42.696;23.494;2022-12-18T13:48:49;17.65;;;10.23;;
10939;SDS011;5522;42.696;23.494;2022-12-18T13:51:29;17.08;;;10.38;;
10939;SDS011;5522;42.696;23.494;2022-12-18T13:54:00;18.00;;;10.40;;
10939;SDS011;5522;42.696;23.494;2022-12-18T13:56:29;16.65;;;10.90;;
10939;SDS011;5522;42.696;23.494;2022-12-18T13:59:04;15.23;;;10.13;;
10939;SDS011;5522;42.696;23.494;2022-12-18T14:01:41;18.35;;;10.65;;
10939;SDS011;5522;42.696;23.494;2022-12-18T14:04:09;19.48;;;11.07;;
10939;SDS011;5522;42.696;23.494;2022-12-18T14:06:39;17.38;;;10.02;;
10939;SDS011;5522;42.696;23.494;2022-12-18T14:09:10;15.50;;;9.63;;
10939;SDS011;5522;42.696;23.494;2022-12-18T14:11:40;19.60;;;9.93;;
10939;SDS011;5522;42.696;23.494;2022-12-18T14:14:13;16.10;;;10.10;;
10939;SDS011;5522;42.696;23.494;2022-12-18T14:16:41;18.75;;;10.40;;
10939;SDS011;5522;42.696;23.494;2022-12-18T14:19:09;19.98;;;10.80;;
10939;SDS011;5522;42.696;23.494;2022-12-18T14:21:42;18.90;;;11.55;;
10939;SDS011;5522;42.696;23.494;2022-12-18T14:24:13;17.45;;;10.85;;
10939;SDS011;5522;42.696;23.494;2022-12-18T14:26:42;16.42;;;10.98;;
10939;SDS011;5522;42.696;23.494;2022-12-18T14:29:21;17.33;;;10.98;;
10939;SDS011;5522;42.696;23.494;2022-12-18T14:32:05;18.70;;;11.55;;
10939;SDS011;5522;42.696;23.494;2022-12-18T14:34:35;20.02;;;10.55;;
10939;SDS011;5522;42.696;23.494;2022-12-18T14:37:04;20.92;;;10.88;;
10939;SDS011;5522;42.696;23.494;2022-12-18T14:39:32;19.48;;;11.98;;
10939;SDS011;5522;42.696;23.494;2022-12-18T14:41:59;17.42;;;10.15;;
10939;SDS011;5522;42.696;23.494;2022-12-18T14:44:25;16.50;;;10.32;;
10939;SDS011;5522;42.696;23.494;2022-12-18T14:46:52;17.75;;;10.43;;
10939;SDS011;5522;42.696;23.494;2022-12-18T14:49:21;17.50;;;10.73;;
10939;SDS011;5522;42.696;23.494;2022-12-18T14:51:52;19.45;;;10.48;;
10939;SDS011;5522;42.696;23.494;2022-12-18T14:54:22;16.73;;;9.80;;
10939;SDS011;5522;42.696;23.494;2022-12-18T14:56:51;17.95;;;10.07;;
10939;SDS011;5522;42.696;23.494;2022-12-18T14:59:21;18.38;;;10.93;;
10939;SDS011;5522;42.696;23.494;2022-12-18T15:01:55;17.60;;;10.45;;
10939;SDS011;5522;42.696;23.494;2022-12-18T15:04:27;18.60;;;10.63;;
10939;SDS011;5522;42.696;23.494;2022-12-18T15:07:12;23.40;;;11.95;;
10939;SDS011;5522;42.696;23.494;2022-12-18T15:10:00;19.67;;;10.25;;
10939;SDS011;5522;42.696;23.494;2022-12-18T15:12:33;20.30;;;10.77;;
10939;SDS011;5522;42.696;23.494;2022-12-18T15:15:03;18.13;;;10.07;;